Time;durP1;ratioP1;P1;durP2;ratioP2;P2;SDS_P1;SDS_P2;PMS_P1;PMS_P2;Temp;Humidity;BMP_temperature;BMP_pressure;BME280_temperature;BME280_humidity;BME280_pressure;Samples;Min_cycle;Max_cycle;Signal;HPM_P1;HPM_P2
2023/02/07 00:00:13;;;;;;;;;;;18.70;33.70;;;;;;8365833;28;19917;-42
2023/02/07 00:04:13;;;;;;;;;;;18.70;33.70;;;;;;8366145;28;20004;-42
2023/02/07 00:08:15;;;;;;;;;;;18.60;33.70;;;;;;8366116;28;19934;-42
2023/02/07 00:12:15;;;;;;;;;;;18.60;33.70;;;;;;8365527;28;19924;-42
2023/02/07 00:16:16;;;;;;;;;;;18.60;33.70;;;;;;8365797;28;20488;-42
2023/02/07 00:20:17;;;;;;;;;;;18.60;33.80;;;;;;8365657;28;19921;-42
2023/02/07 00:24:17;;;;;;;;;;;18.60;33.80;;;;;;8365279;28;19967;-42
2023/02/07 00:28:17;;;;;;;;;;;18.50;33.80;;;;;;8365498;28;19919;-42
2023/02/07 00:32:18;;;;;;;;;;;18.50;33.80;;;;;;8365077;28;19958;-42
2023/02/07 00:36:21;;;;;;;;;;;18.50;33.80;;;;;;8364666;28;20369;-42
2023/02/07 00:40:22;;;;;;;;;;;18.40;33.80;;;;;;8364306;28;19917;-42
2023/02/07 00:44:23;;;;;;;;;;;18.40;33.70;;;;;;8364746;28;20016;-42
2023/02/07 00:48:23;;;;;;;;;;;18.40;33.80;;;;;;8364531;28;20293;-42
2023/02/07 00:52:24;;;;;;;;;;;18.40;33.80;;;;;;8364720;28;19930;-42
2023/02/07 00:56:25;;;;;;;;;;;18.40;33.80;;;;;;8365018;28;19928;-42
2023/02/07 01:00:26;;;;;;;;;;;18.30;33.80;;;;;;8363907;28;20382;-42
2023/02/07 01:04:26;;;;;;;;;;;18.40;33.80;;;;;;8364263;28;19913;-42
2023/02/07 01:08:27;;;;;;;;;;;18.30;33.80;;;;;;8364511;28;19921;-42
2023/02/07 01:12:27;;;;;;;;;;;18.30;33.80;;;;;;8363564;28;19955;-42
2023/02/07 01:16:32;;;;;;;;;;;18.30;33.90;;;;;;8364065;28;19928;-42
2023/02/07 01:20:33;;;;;;;;;;;18.30;33.90;;;;;;8363672;28;19943;-41
2023/02/07 01:24:34;;;;;;;;;;;18.20;33.80;;;;;;8363376;28;20270;-41
2023/02/07 01:28:34;;;;;;;;;;;18.20;33.80;;;;;;8362579;28;19920;-42
2023/02/07 01:32:35;;;;;;;;;;;18.20;33.80;;;;;;8363741;28;20006;-42
2023/02/07 01:36:35;;;;;;;;;;;18.20;33.80;;;;;;8363158;28;20328;-42
2023/02/07 01:40:36;;;;;;;;;;;18.20;33.80;;;;;;8363350;28;19913;-42
2023/02/07 01:44:37;;;;;;;;;;;18.20;33.90;;;;;;8363475;28;19939;-42
2023/02/07 01:48:37;;;;;;;;;;;18.10;33.80;;;;;;8363101;28;19925;-42
2023/02/07 01:52:39;;;;;;;;;;;18.10;33.80;;;;;;8362946;28;19930;-42
2023/02/07 01:56:44;;;;;;;;;;;18.10;33.80;;;;;;8363416;28;20055;-42
2023/02/07 02:00:45;;;;;;;;;;;18.10;33.80;;;;;;8362565;28;19921;-41
2023/02/07 02:04:45;;;;;;;;;;;18.10;33.80;;;;;;8362954;28;20423;-42
2023/02/07 02:08:46;;;;;;;;;;;18.00;33.80;;;;;;8362075;28;19952;-42
2023/02/07 02:13:01;;;;;;;;;;;18.00;33.80;;;;;;8362590;28;19917;-42
2023/02/07 02:17:13;;;;;;;;;;;18.00;33.80;;;;;;8363105;28;19917;-42
2023/02/07 02:21:17;;;;;;;;;;;18.00;33.80;;;;;;8363329;28;19928;-42
2023/02/07 02:25:30;;;;;;;;;;;18.00;33.80;;;;;;8363419;28;20385;-41
2023/02/07 02:29:42;;;;;;;;;;;17.90;33.80;;;;;;8362244;28;20382;-41
2023/02/07 02:34:03;;;;;;;;;;;17.90;33.70;;;;;;8362097;28;19916;-41
2023/02/07 02:38:20;;;;;;;;;;;17.90;33.80;;;;;;8362526;28;19917;-41
2023/02/07 02:42:32;;;;;;;;;;;17.90;33.80;;;;;;8361907;28;19931;-41
2023/02/07 02:46:34;;;;;;;;;;;17.90;33.70;;;;;;8362716;28;19992;-41
2023/02/07 02:50:34;;;;;;;;;;;17.90;33.80;;;;;;8362413;28;19924;-41
2023/02/07 02:54:36;;;;;;;;;;;17.90;33.80;;;;;;8362035;28;19920;-41
2023/02/07 02:58:48;;;;;;;;;;;17.80;33.80;;;;;;8362274;28;20011;-41
2023/02/07 03:02:59;;;;;;;;;;;17.80;33.80;;;;;;8362071;28;19921;-41
2023/02/07 03:07:07;;;;;;;;;;;17.80;33.70;;;;;;8367196;28;19917;-41
2023/02/07 03:11:10;;;;;;;;;;;17.80;33.80;;;;;;8368049;28;19917;-41
2023/02/07 03:15:15;;;;;;;;;;;17.80;33.80;;;;;;8367395;28;19940;-41
2023/02/07 03:19:23;;;;;;;;;;;17.80;33.80;;;;;;8367875;28;19921;-41
2023/02/07 03:23:23;;;;;;;;;;;17.80;33.80;;;;;;8367591;28;19925;-41
2023/02/07 03:27:25;;;;;;;;;;;17.80;33.80;;;;;;8366837;28;19916;-41
2023/02/07 03:31:26;;;;;;;;;;;17.80;33.70;;;;;;8367293;28;19917;-41
2023/02/07 03:35:34;;;;;;;;;;;17.80;33.70;;;;;;8367213;28;19920;-41
2023/02/07 03:39:34;;;;;;;;;;;17.80;33.70;;;;;;8366839;28;19913;-41
2023/02/07 03:43:35;;;;;;;;;;;17.70;33.60;;;;;;8366695;28;20596;-41
2023/02/07 03:47:36;;;;;;;;;;;17.80;33.60;;;;;;8366696;28;20393;-41
2023/02/07 03:51:36;;;;;;;;;;;17.70;33.60;;;;;;8366218;28;19920;-41
2023/02/07 03:55:37;;;;;;;;;;;17.70;33.60;;;;;;8366721;28;20108;-41
2023/02/07 03:59:37;;;;;;;;;;;17.80;33.60;;;;;;8366651;28;20348;-41
2023/02/07 04:03:38;;;;;;;;;;;17.70;33.60;;;;;;8365726;28;19936;-41
2023/02/07 04:07:38;;;;;;;;;;;17.70;33.60;;;;;;8366265;28;19978;-41
2023/02/07 04:11:39;;;;;;;;;;;17.70;33.60;;;;;;8366019;28;20006;-41
2023/02/07 04:15:39;;;;;;;;;;;17.80;33.60;;;;;;8364292;28;19917;-41
2023/02/07 04:19:39;;;;;;;;;;;17.70;33.60;;;;;;8366217;28;19928;-41
2023/02/07 04:23:40;;;;;;;;;;;17.80;33.60;;;;;;8365540;28;20023;-41
2023/02/07 04:27:40;;;;;;;;;;;17.70;33.60;;;;;;8364880;28;19917;-41
2023/02/07 04:31:41;;;;;;;;;;;17.70;33.50;;;;;;8365671;28;19917;-41
2023/02/07 04:35:41;;;;;;;;;;;17.70;33.60;;;;;;8365513;28;19917;-41
2023/02/07 04:39:42;;;;;;;;;;;17.70;33.60;;;;;;8364588;28;19917;-41
2023/02/07 04:43:42;;;;;;;;;;;17.70;33.50;;;;;;8365090;28;19925;-41
2023/02/07 04:47:43;;;;;;;;;;;17.70;33.40;;;;;;8364895;28;19913;-41
2023/02/07 04:51:43;;;;;;;;;;;17.70;33.50;;;;;;8364906;28;19917;-41
2023/02/07 04:55:47;;;;;;;;;;;17.70;33.50;;;;;;8364815;28;19921;-41
2023/02/07 04:59:47;;;;;;;;;;;17.70;33.60;;;;;;8364499;28;20502;-41
2023/02/07 05:03:48;;;;;;;;;;;17.60;33.60;;;;;;8346570;28;19929;-41
2023/02/07 05:07:48;;;;;;;;;;;17.60;33.50;;;;;;8346967;28;19921;-41
2023/02/07 05:11:49;;;;;;;;;;;17.60;33.60;;;;;;8364104;28;20366;-41
2023/02/07 05:15:50;;;;;;;;;;;17.70;34.10;;;;;;8363860;28;19916;-42
2023/02/07 05:19:50;;;;;;;;;;;17.80;33.60;;;;;;8363825;28;19917;-42
2023/02/07 05:23:51;;;;;;;;;;;17.90;33.40;;;;;;8363871;28;20356;-42
2023/02/07 05:27:51;;;;;;;;;;;18.00;33.30;;;;;;8362942;28;19917;-42
2023/02/07 05:36:11;;;;;;;;;;;18.10;33.70;;;;;;8365140;28;19920;-42
2023/02/07 05:40:12;;;;;;;;;;;18.20;33.10;;;;;;8363684;28;19913;-42
2023/02/07 05:44:12;;;;;;;;;;;18.20;33.00;;;;;;8363219;28;20329;-42
2023/02/07 05:48:12;;;;;;;;;;;18.20;33.00;;;;;;8362803;28;20427;-42
2023/02/07 05:52:13;;;;;;;;;;;18.30;32.90;;;;;;8363501;28;19920;-42
2023/02/07 05:56:13;;;;;;;;;;;18.30;32.90;;;;;;8363189;28;19920;-42
2023/02/07 06:00:16;;;;;;;;;;;18.40;32.80;;;;;;8362682;28;19932;-41
2023/02/07 06:04:16;;;;;;;;;;;18.40;32.80;;;;;;8363172;28;19964;-42
2023/02/07 06:08:17;;;;;;;;;;;18.50;32.80;;;;;;8362868;28;19916;-42
2023/02/07 06:12:17;;;;;;;;;;;18.50;32.80;;;;;;8362504;28;19955;-41
2023/02/07 06:16:18;;;;;;;;;;;18.50;32.70;;;;;;8363153;28;19920;-42
2023/02/07 06:20:18;;;;;;;;;;;18.60;32.70;;;;;;8362652;28;19916;-42
2023/02/07 06:24:21;;;;;;;;;;;18.60;32.70;;;;;;8362168;28;19924;-41
2023/02/07 06:28:21;;;;;;;;;;;18.60;32.70;;;;;;8362874;28;19916;-41
2023/02/07 06:32:22;;;;;;;;;;;18.60;32.60;;;;;;8362759;28;19947;-42
2023/02/07 06:36:22;;;;;;;;;;;18.70;32.70;;;;;;8362339;28;19913;-41
2023/02/07 06:40:22;;;;;;;;;;;18.70;32.60;;;;;;8365170;28;20007;-42
2023/02/07 06:44:23;;;;;;;;;;;18.70;32.60;;;;;;8368526;28;20317;-42
2023/02/07 06:48:23;;;;;;;;;;;18.80;32.60;;;;;;8368158;28;20015;-42
2023/02/07 06:52:24;;;;;;;;;;;18.80;32.50;;;;;;8368506;28;19963;-42
2023/02/07 06:56:24;;;;;;;;;;;18.80;32.60;;;;;;8368833;28;19920;-42
2023/02/07 07:00:25;;;;;;;;;;;18.80;32.50;;;;;;8367687;28;19921;-42
2023/02/07 07:04:26;;;;;;;;;;;18.80;32.50;;;;;;8368377;28;19932;-42
2023/02/07 07:08:26;;;;;;;;;;;18.80;32.50;;;;;;8367990;28;19963;-42
2023/02/07 07:12:27;;;;;;;;;;;18.90;32.50;;;;;;8367298;28;20527;-42
2023/02/07 07:16:27;;;;;;;;;;;18.90;32.40;;;;;;8368093;28;19935;-42
2023/02/07 07:20:27;;;;;;;;;;;18.90;32.40;;;;;;8367470;28;19920;-42
2023/02/07 07:24:28;;;;;;;;;;;18.90;32.40;;;;;;8366719;28;19932;-42
2023/02/07 07:28:29;;;;;;;;;;;18.90;32.30;;;;;;8367264;28;19999;-42
2023/02/07 07:32:30;;;;;;;;;;;19.00;32.40;;;;;;8367263;28;19917;-42
2023/02/07 07:36:31;;;;;;;;;;;18.90;32.90;;;;;;8366904;28;19916;-42
2023/02/07 07:40:31;;;;;;;;;;;19.00;32.40;;;;;;8366867;28;20340;-42
2023/02/07 07:44:32;;;;;;;;;;;19.00;32.30;;;;;;8367076;28;20368;-42
2023/02/07 07:48:32;;;;;;;;;;;19.00;32.30;;;;;;8366408;28;19963;-42
2023/02/07 07:52:33;;;;;;;;;;;19.00;32.30;;;;;;8366259;28;19953;-42
2023/02/07 07:56:34;;;;;;;;;;;19.10;32.30;;;;;;8367162;28;19927;-42
2023/02/07 08:00:34;;;;;;;;;;;19.10;32.20;;;;;;8365556;28;19917;-42
2023/02/07 08:04:35;;;;;;;;;;;19.10;32.20;;;;;;8365894;28;19974;-42
2023/02/07 08:08:35;;;;;;;;;;;19.10;32.10;;;;;;8365788;28;19916;-42
2023/02/07 08:12:36;;;;;;;;;;;19.10;32.10;;;;;;8364302;28;20050;-42
2023/02/07 08:16:36;;;;;;;;;;;19.20;32.10;;;;;;8366194;28;19935;-42
2023/02/07 08:20:36;;;;;;;;;;;19.10;32.00;;;;;;8365254;28;19917;-42
2023/02/07 08:24:37;;;;;;;;;;;19.10;32.10;;;;;;8364858;28;19921;-42
2023/02/07 08:28:37;;;;;;;;;;;19.10;32.00;;;;;;8365296;28;19947;-42
2023/02/07 08:32:38;;;;;;;;;;;19.10;32.00;;;;;;8365272;28;19925;-42
2023/02/07 08:36:39;;;;;;;;;;;19.00;32.00;;;;;;8364961;28;19917;-42
2023/02/07 08:40:39;;;;;;;;;;;19.00;32.10;;;;;;8364732;28;20328;-42
2023/02/07 08:44:40;;;;;;;;;;;18.90;32.10;;;;;;8364706;28;19935;-42
2023/02/07 08:48:40;;;;;;;;;;;18.90;32.10;;;;;;8364133;28;19940;-42
2023/02/07 08:52:41;;;;;;;;;;;18.90;32.10;;;;;;8364372;28;19913;-42
2023/02/07 08:56:41;;;;;;;;;;;18.90;32.10;;;;;;8364965;28;19987;-42
2023/02/07 09:00:42;;;;;;;;;;;18.80;32.00;;;;;;8363879;28;19920;-42
2023/02/07 09:04:43;;;;;;;;;;;18.80;32.10;;;;;;8363668;28;19920;-42
2023/02/07 09:08:43;;;;;;;;;;;18.80;32.20;;;;;;8364122;28;19924;-42
2023/02/07 09:12:44;;;;;;;;;;;18.80;32.20;;;;;;8363476;28;19913;-42
2023/02/07 09:16:44;;;;;;;;;;;18.70;32.30;;;;;;8364479;28;19913;-42
2023/02/07 09:20:45;;;;;;;;;;;18.70;32.30;;;;;;8363768;28;19917;-42
2023/02/07 09:24:45;;;;;;;;;;;18.60;32.30;;;;;;8363283;28;20066;-42
2023/02/07 09:28:46;;;;;;;;;;;18.60;32.30;;;;;;8363779;28;19923;-42
2023/02/07 09:32:46;;;;;;;;;;;18.60;32.40;;;;;;8363783;28;20003;-42
2023/02/07 09:36:48;;;;;;;;;;;18.60;32.40;;;;;;8363250;28;19913;-42
2023/02/07 09:40:50;;;;;;;;;;;18.50;32.40;;;;;;8363577;28;19966;-42
2023/02/07 09:45:00;;;;;;;;;;;18.50;32.30;;;;;;8363115;28;20278;-42
2023/02/07 09:49:03;;;;;;;;;;;18.50;32.40;;;;;;8362858;28;19917;-42
2023/02/07 09:53:03;;;;;;;;;;;18.50;32.40;;;;;;8363186;28;19913;-42
2023/02/07 09:57:07;;;;;;;;;;;18.50;32.50;;;;;;8363148;28;20358;-42
2023/02/07 10:01:08;;;;;;;;;;;18.40;32.40;;;;;;8362767;28;19924;-42
2023/02/07 10:05:16;;;;;;;;;;;18.50;32.50;;;;;;8363054;28;20377;-42
2023/02/07 10:09:20;;;;;;;;;;;18.40;32.50;;;;;;8362498;28;20361;-42
2023/02/07 10:13:32;;;;;;;;;;;18.40;32.50;;;;;;8364370;28;20015;-42
2023/02/07 10:17:49;;;;;;;;;;;18.40;33.00;;;;;;8369962;28;19912;-42
2023/02/07 10:21:57;;;;;;;;;;;18.40;32.50;;;;;;8368952;28;20377;-42
2023/02/07 10:26:00;;;;;;;;;;;18.40;32.60;;;;;;8369367;28;19917;-42
2023/02/07 10:30:03;;;;;;;;;;;18.40;32.50;;;;;;8368646;28;19917;-42
2023/02/07 10:34:12;;;;;;;;;;;18.40;33.10;;;;;;8368983;28;19917;-42
2023/02/07 10:38:26;;;;;;;;;;;18.40;32.60;;;;;;8368852;28;20321;-42
2023/02/07 10:42:28;;;;;;;;;;;18.40;32.50;;;;;;8368456;28;19920;-42
2023/02/07 10:46:28;;;;;;;;;;;18.40;32.60;;;;;;8368461;28;19960;-42
2023/02/07 10:50:29;;;;;;;;;;;18.30;32.60;;;;;;8368696;28;19917;-43
2023/02/07 10:54:47;;;;;;;;;;;18.30;32.60;;;;;;8367974;28;19917;-42
2023/02/07 10:58:47;;;;;;;;;;;18.30;32.60;;;;;;8368016;28;20012;-43
2023/02/07 11:02:50;;;;;;;;;;;18.30;32.60;;;;;;8368229;28;19925;-43
2023/02/07 11:06:58;;;;;;;;;;;18.30;32.60;;;;;;8367528;28;19924;-43
2023/02/07 11:11:16;;;;;;;;;;;18.30;32.60;;;;;;8357650;28;19925;-42
2023/02/07 11:15:22;;;;;;;;;;;18.30;32.60;;;;;;8350335;28;19916;-43
2023/02/07 11:19:24;;;;;;;;;;;18.30;32.60;;;;;;8368130;28;20327;-41
2023/02/07 11:23:25;;;;;;;;;;;18.30;32.60;;;;;;8367772;28;19920;-41
2023/02/07 11:27:25;;;;;;;;;;;18.30;32.70;;;;;;8366374;28;20003;-41
2023/02/07 11:31:28;;;;;;;;;;;18.20;32.60;;;;;;8367505;28;19917;-42
2023/02/07 11:35:29;;;;;;;;;;;18.20;32.70;;;;;;8367172;28;19921;-41
2023/02/07 11:39:29;;;;;;;;;;;18.20;32.70;;;;;;8366691;28;20404;-41
2023/02/07 11:43:31;;;;;;;;;;;18.20;32.70;;;;;;8367090;28;19921;-41
2023/02/07 11:47:33;;;;;;;;;;;18.30;32.70;;;;;;8367323;28;19971;-41
2023/02/07 11:51:34;;;;;;;;;;;18.20;32.70;;;;;;8366354;28;19971;-41
2023/02/07 11:55:38;;;;;;;;;;;18.20;32.80;;;;;;8366893;28;20025;-42
2023/02/07 11:59:49;;;;;;;;;;;18.20;32.80;;;;;;8366607;28;19928;-42
2023/02/07 12:03:59;;;;;;;;;;;18.20;32.80;;;;;;8365820;28;19920;-42
2023/02/07 12:08:03;;;;;;;;;;;18.20;32.80;;;;;;8366673;28;19913;-41
2023/02/07 12:12:06;;;;;;;;;;;18.20;32.80;;;;;;8365818;28;19917;-42
2023/02/07 12:16:15;;;;;;;;;;;18.20;32.80;;;;;;8366629;28;19939;-42
2023/02/07 12:20:22;;;;;;;;;;;18.20;32.80;;;;;;8365753;28;19920;-41
2023/02/07 12:24:22;;;;;;;;;;;18.20;32.80;;;;;;8365229;28;19925;-42
2023/02/07 12:28:27;;;;;;;;;;;18.20;32.80;;;;;;8365706;28;20285;-42
2023/02/07 12:32:30;;;;;;;;;;;18.20;32.80;;;;;;8365569;28;20389;-41
2023/02/07 12:36:39;;;;;;;;;;;18.20;32.80;;;;;;8363942;28;19917;-41
2023/02/07 12:40:43;;;;;;;;;;;18.20;32.80;;;;;;8365033;28;19920;-42
2023/02/07 12:44:49;;;;;;;;;;;18.20;32.90;;;;;;8364914;28;19925;-42
2023/02/07 12:48:53;;;;;;;;;;;18.20;32.80;;;;;;8364549;28;20385;-41
2023/02/07 12:53:12;;;;;;;;;;;18.10;32.80;;;;;;8364750;28;19917;-42
2023/02/07 12:57:18;;;;;;;;;;;18.20;32.80;;;;;;8364701;28;19928;-41
2023/02/07 13:01:52;;;;;;;;;;;18.20;32.80;;;;;;8366643;28;19921;-42
2023/02/07 13:06:07;;;;;;;;;;;18.20;32.90;;;;;;8349372;28;19928;-42
2023/02/07 13:10:27;;;;;;;;;;;18.20;32.90;;;;;;8358442;28;19920;-42
2023/02/07 13:14:33;;;;;;;;;;;18.10;32.90;;;;;;8358775;28;19991;-42
2023/02/07 13:18:51;;;;;;;;;;;18.10;32.90;;;;;;8358270;28;19921;-42
2023/02/07 13:23:02;;;;;;;;;;;18.10;32.90;;;;;;8358912;28;19917;-42
2023/02/07 13:27:05;;;;;;;;;;;18.10;32.90;;;;;;8358003;28;19928;-42
2023/02/07 13:31:07;;;;;;;;;;;18.10;32.90;;;;;;8358509;28;19923;-42
2023/02/07 13:35:16;;;;;;;;;;;18.10;32.90;;;;;;8358062;28;20385;-42
2023/02/07 13:39:17;;;;;;;;;;;18.10;32.90;;;;;;8357417;28;19987;-41
2023/02/07 13:43:17;;;;;;;;;;;18.10;32.90;;;;;;8357604;28;19963;-42
2023/02/07 13:47:26;;;;;;;;;;;18.10;32.90;;;;;;8357425;28;19917;-42
2023/02/07 13:51:49;;;;;;;;;;;18.10;32.90;;;;;;8356731;28;20024;-42
2023/02/07 13:55:49;;;;;;;;;;;18.10;32.90;;;;;;8356973;28;19975;-42
2023/02/07 14:00:09;;;;;;;;;;;18.10;32.90;;;;;;8376993;28;19925;-42
2023/02/07 14:04:10;;;;;;;;;;;18.10;32.90;;;;;;8389754;28;20162;-42
2023/02/07 14:08:17;;;;;;;;;;;18.10;32.90;;;;;;8371841;28;19917;-42
2023/02/07 14:12:19;;;;;;;;;;;18.10;32.90;;;;;;8359720;28;19925;-41
2023/02/07 14:16:40;;;;;;;;;;;18.10;33.00;;;;;;8367615;28;19917;-41
2023/02/07 14:20:40;;;;;;;;;;;18.10;32.90;;;;;;8366986;28;20501;-41
2023/02/07 14:25:13;;;;;;;;;;;18.10;32.90;;;;;;8366760;28;19920;-41
2023/02/07 14:29:19;;;;;;;;;;;18.10;33.00;;;;;;8367238;28;20423;-41
2023/02/07 14:33:20;;;;;;;;;;;18.10;32.90;;;;;;8366696;28;19917;-41
2023/02/07 14:37:35;;;;;;;;;;;18.10;32.90;;;;;;8367055;28;19940;-41
2023/02/07 14:41:37;;;;;;;;;;;18.10;32.90;;;;;;8366774;28;19927;-41
2023/02/07 14:45:39;;;;;;;;;;;18.10;32.90;;;;;;8365926;28;19971;-41
2023/02/07 14:49:45;;;;;;;;;;;18.10;32.90;;;;;;8366662;28;19917;-41
2023/02/07 14:53:49;;;;;;;;;;;18.00;32.90;;;;;;8366003;28;19943;-41
2023/02/07 14:57:53;;;;;;;;;;;18.00;33.40;;;;;;8365379;28;19932;-41
2023/02/07 15:01:53;;;;;;;;;;;18.00;32.90;;;;;;8366412;28;19917;-42
2023/02/07 15:05:58;;;;;;;;;;;18.00;32.90;;;;;;8366109;28;20281;-41
2023/02/07 15:09:58;;;;;;;;;;;18.00;33.00;;;;;;8365958;28;19912;-41
2023/02/07 15:14:01;;;;;;;;;;;18.00;33.00;;;;;;8365788;28;19920;-41
2023/02/07 15:18:01;;;;;;;;;;;18.00;33.00;;;;;;8364960;28;19925;-41
2023/02/07 15:22:03;;;;;;;;;;;18.00;33.00;;;;;;8364397;28;19925;-41
2023/02/07 15:26:05;;;;;;;;;;;18.00;33.00;;;;;;8365568;28;19917;-41
2023/02/07 15:30:07;;;;;;;;;;;18.00;32.90;;;;;;8364754;28;20327;-41
2023/02/07 15:34:13;;;;;;;;;;;18.00;33.00;;;;;;8365329;28;19917;-41
2023/02/07 15:38:19;;;;;;;;;;;18.00;33.00;;;;;;8365092;28;20410;-41
2023/02/07 15:42:20;;;;;;;;;;;18.00;33.00;;;;;;8364107;28;19924;-41
2023/02/07 15:46:20;;;;;;;;;;;18.00;33.00;;;;;;8364669;28;19956;-41
2023/02/07 15:50:22;;;;;;;;;;;18.00;33.00;;;;;;8364631;28;19917;-41
2023/02/07 15:54:24;;;;;;;;;;;17.90;33.00;;;;;;8364262;28;19920;-41
2023/02/07 15:58:31;;;;;;;;;;;17.90;33.00;;;;;;8363989;28;20401;-41
2023/02/07 16:02:36;;;;;;;;;;;17.90;33.10;;;;;;8364346;28;20003;-41
2023/02/07 16:06:36;;;;;;;;;;;17.90;33.10;;;;;;8363756;28;19967;-43
2023/02/07 16:10:38;;;;;;;;;;;17.90;33.10;;;;;;8364044;28;19912;-42
2023/02/07 16:14:39;;;;;;;;;;;18.00;33.00;;;;;;8364284;28;20301;-42
2023/02/07 16:18:41;;;;;;;;;;;18.10;33.00;;;;;;8363158;28;20021;-42
2023/02/07 16:22:43;;;;;;;;;;;18.20;32.80;;;;;;8364219;28;19970;-42
2023/02/07 16:26:43;;;;;;;;;;;18.40;32.70;;;;;;8363764;28;19924;-42
2023/02/07 16:30:44;;;;;;;;;;;18.50;32.60;;;;;;8362970;28;20382;-42
2023/02/07 16:34:45;;;;;;;;;;;18.60;32.60;;;;;;8363355;28;20012;-42
2023/02/07 16:38:46;;;;;;;;;;;18.70;32.50;;;;;;8363391;28;19924;-42
2023/02/07 16:42:46;;;;;;;;;;;18.70;32.40;;;;;;8362658;28;19917;-42
2023/02/07 16:46:47;;;;;;;;;;;18.80;32.40;;;;;;8363225;28;19920;-42
2023/02/07 16:50:48;;;;;;;;;;;18.90;32.30;;;;;;8362872;28;19913;-42
2023/02/07 16:54:48;;;;;;;;;;;18.90;32.30;;;;;;8362601;28;19920;-42
2023/02/07 16:58:48;;;;;;;;;;;19.00;32.20;;;;;;8362613;28;19991;-42
2023/02/07 17:02:49;;;;;;;;;;;19.10;32.20;;;;;;8362786;28;19939;-42
2023/02/07 17:06:50;;;;;;;;;;;19.10;32.10;;;;;;8362400;28;20424;-42
2023/02/07 17:10:52;;;;;;;;;;;19.20;32.10;;;;;;8361867;28;20000;-42
2023/02/07 17:14:53;;;;;;;;;;;19.30;32.20;;;;;;8362538;28;20004;-41
2023/02/07 17:18:53;;;;;;;;;;;19.20;32.00;;;;;;8362524;28;19924;-42
2023/02/07 17:22:54;;;;;;;;;;;19.30;32.00;;;;;;8362664;28;20004;-42
2023/02/07 17:26:55;;;;;;;;;;;19.30;32.00;;;;;;8362112;28;19924;-41
2023/02/07 17:30:55;;;;;;;;;;;19.40;32.00;;;;;;8362571;28;19920;-42
2023/02/07 17:34:56;;;;;;;;;;;19.40;32.00;;;;;;8362612;28;19920;-42
2023/02/07 17:38:57;;;;;;;;;;;19.50;32.00;;;;;;8361806;28;19931;-41
2023/02/07 17:42:58;;;;;;;;;;;19.50;32.00;;;;;;8362450;28;19996;-42
2023/02/07 17:46:58;;;;;;;;;;;19.50;31.90;;;;;;8366249;28;19916;-41
2023/02/07 17:50:59;;;;;;;;;;;19.50;32.00;;;;;;8367971;28;19913;-42
2023/02/07 17:54:59;;;;;;;;;;;19.60;32.00;;;;;;8368149;28;19917;-41
2023/02/07 17:59:01;;;;;;;;;;;19.60;31.90;;;;;;8367635;28;19933;-41
2023/02/07 18:03:02;;;;;;;;;;;19.60;31.90;;;;;;8367407;28;19917;-42
2023/02/07 18:07:03;;;;;;;;;;;19.60;32.00;;;;;;8368048;28;19927;-41
2023/02/07 18:11:06;;;;;;;;;;;19.70;31.90;;;;;;8368073;28;19913;-41
2023/02/07 18:15:07;;;;;;;;;;;19.70;31.90;;;;;;8367251;28;19960;-41
2023/02/07 18:19:09;;;;;;;;;;;19.70;32.40;;;;;;8368019;28;19925;-42
2023/02/07 18:23:12;;;;;;;;;;;19.70;31.90;;;;;;8367809;28;20377;-42
2023/02/07 18:27:15;;;;;;;;;;;19.70;31.90;;;;;;8367299;28;22513;-41
2023/02/07 18:31:18;;;;;;;;;;;19.70;31.90;;;;;;8368029;28;19936;-41
2023/02/07 18:35:18;;;;;;;;;;;19.80;31.90;;;;;;8367754;28;20009;-41
2023/02/07 18:39:19;;;;;;;;;;;19.80;31.90;;;;;;8366530;28;19933;-42
2023/02/07 18:43:19;;;;;;;;;;;19.80;31.90;;;;;;8367034;28;19924;-42
2023/02/07 18:47:19;;;;;;;;;;;19.80;31.80;;;;;;8366878;28;19923;-42
2023/02/07 18:51:20;;;;;;;;;;;19.80;31.80;;;;;;8366631;28;19913;-42
2023/02/07 18:55:21;;;;;;;;;;;19.90;31.80;;;;;;8366328;28;20329;-43
2023/02/07 18:59:22;;;;;;;;;;;19.90;31.80;;;;;;8366060;28;19971;-42
2023/02/07 19:03:23;;;;;;;;;;;19.90;31.70;;;;;;8365609;28;20304;-42
2023/02/07 19:07:23;;;;;;;;;;;19.90;31.80;;;;;;8366202;28;19917;-42
2023/02/07 19:11:25;;;;;;;;;;;19.90;31.70;;;;;;8366292;28;20043;-42
2023/02/07 19:15:25;;;;;;;;;;;19.90;31.70;;;;;;8365424;28;19927;-41
2023/02/07 19:19:27;;;;;;;;;;;19.90;31.60;;;;;;8365704;28;19925;-42
2023/02/07 19:23:27;;;;;;;;;;;20.00;31.70;;;;;;8365705;28;19917;-42
2023/02/07 19:27:28;;;;;;;;;;;20.00;31.60;;;;;;8365079;28;19917;-41
2023/02/07 19:31:28;;;;;;;;;;;20.00;31.60;;;;;;8365988;28;19966;-42
2023/02/07 19:35:29;;;;;;;;;;;20.00;31.60;;;;;;8365289;28;20000;-41
2023/02/07 19:39:29;;;;;;;;;;;20.00;31.60;;;;;;8364721;28;20281;-41
2023/02/07 19:43:30;;;;;;;;;;;20.00;31.60;;;;;;8347154;28;19924;-42
2023/02/07 19:47:31;;;;;;;;;;;20.10;31.60;;;;;;8365000;28;20324;-42
2023/02/07 19:51:31;;;;;;;;;;;20.10;31.60;;;;;;8346693;28;19959;-41
2023/02/07 19:55:32;;;;;;;;;;;20.10;31.60;;;;;;8346771;28;19921;-41
2023/02/07 19:59:32;;;;;;;;;;;20.10;31.50;;;;;;8364947;28;19964;-42
2023/02/07 20:03:33;;;;;;;;;;;20.10;31.50;;;;;;8363879;28;19921;-42
2023/02/07 20:07:33;;;;;;;;;;;20.10;31.40;;;;;;8363652;28;19995;-42
2023/02/07 20:11:34;;;;;;;;;;;20.10;31.50;;;;;;8335196;28;19913;-42
2023/02/07 20:15:38;;;;;;;;;;;20.10;31.40;;;;;;8360328;28;20340;-42
2023/02/07 20:19:38;;;;;;;;;;;20.20;31.40;;;;;;8364129;28;20298;-42
2023/02/07 20:23:40;;;;;;;;;;;20.20;31.40;;;;;;8363711;28;20023;-42
2023/02/07 20:27:41;;;;;;;;;;;20.20;31.30;;;;;;8363008;28;19925;-42
2023/02/07 20:31:42;;;;;;;;;;;20.20;31.30;;;;;;8363860;28;20332;-42
2023/02/07 20:35:42;;;;;;;;;;;20.20;31.20;;;;;;8363474;28;20000;-42
2023/02/07 20:39:43;;;;;;;;;;;20.20;31.30;;;;;;8363132;28;19929;-42
2023/02/07 20:43:43;;;;;;;;;;;20.20;31.20;;;;;;8363136;28;19952;-42
2023/02/07 20:47:44;;;;;;;;;;;20.20;31.30;;;;;;8363233;28;19917;-42
2023/02/07 20:51:47;;;;;;;;;;;20.20;31.30;;;;;;8363004;28;20365;-41
2023/02/07 20:55:47;;;;;;;;;;;20.20;31.30;;;;;;8363007;28;19924;-42
2023/02/07 20:59:48;;;;;;;;;;;20.10;31.20;;;;;;8363358;28;19925;-42
2023/02/07 21:03:49;;;;;;;;;;;20.10;31.30;;;;;;8362342;28;19917;-42
2023/02/07 21:07:50;;;;;;;;;;;20.10;31.30;;;;;;8363178;28;20378;-42
2023/02/07 21:11:51;;;;;;;;;;;20.10;31.30;;;;;;8363148;28;19970;-42
2023/02/07 21:15:52;;;;;;;;;;;20.00;31.30;;;;;;8362608;28;19917;-42
2023/02/07 21:19:52;;;;;;;;;;;20.00;31.30;;;;;;8345904;28;19925;-42
2023/02/07 21:23:53;;;;;;;;;;;20.00;31.30;;;;;;8368969;28;19947;-41
2023/02/07 21:27:53;;;;;;;;;;;20.00;31.30;;;;;;8369156;28;19916;-42
2023/02/07 21:31:54;;;;;;;;;;;20.00;31.30;;;;;;8369557;28;19917;-42
2023/02/07 21:36:02;;;;;;;;;;;19.90;31.20;;;;;;8368797;28;20291;-41
2023/02/07 21:40:03;;;;;;;;;;;19.90;31.20;;;;;;8368748;28;19929;-41
2023/02/07 21:44:03;;;;;;;;;;;19.90;31.20;;;;;;8368718;28;20292;-42
2023/02/07 21:48:04;;;;;;;;;;;19.80;31.20;;;;;;8368219;28;20051;-41
2023/02/07 21:52:04;;;;;;;;;;;19.90;31.30;;;;;;8369029;28;20262;-42
2023/02/07 21:56:07;;;;;;;;;;;19.80;31.40;;;;;;8368395;28;20004;-42
2023/02/07 22:00:10;;;;;;;;;;;19.80;31.40;;;;;;8367263;28;19987;-42
2023/02/07 22:04:11;;;;;;;;;;;19.80;31.40;;;;;;8368290;28;20374;-42
2023/02/07 22:08:11;;;;;;;;;;;19.80;31.40;;;;;;8367926;28;19917;-42
2023/02/07 22:12:12;;;;;;;;;;;19.80;31.30;;;;;;8367638;28;19921;-42
2023/02/07 22:16:13;;;;;;;;;;;19.80;31.30;;;;;;8368016;28;20378;-41
2023/02/07 22:20:14;;;;;;;;;;;19.70;31.30;;;;;;8367701;28;19975;-42
2023/02/07 22:24:15;;;;;;;;;;;19.70;31.20;;;;;;8367135;28;20015;-41
2023/02/07 22:28:16;;;;;;;;;;;19.70;31.20;;;;;;8367780;28;20011;-41
2023/02/07 22:32:18;;;;;;;;;;;19.70;31.20;;;;;;8366970;28;19919;-41
2023/02/07 22:36:23;;;;;;;;;;;19.70;31.30;;;;;;8366703;28;19917;-40
2023/02/07 22:40:24;;;;;;;;;;;19.60;31.40;;;;;;8366966;28;19936;-40
2023/02/07 22:44:24;;;;;;;;;;;19.50;31.50;;;;;;8366886;28;19917;-41
2023/02/07 22:48:24;;;;;;;;;;;19.50;31.50;;;;;;8366157;28;20320;-41
2023/02/07 22:52:25;;;;;;;;;;;19.40;31.60;;;;;;8366829;28;19913;-40
2023/02/07 22:56:26;;;;;;;;;;;19.40;31.70;;;;;;8366637;28;19986;-40
2023/02/07 23:00:27;;;;;;;;;;;19.30;31.80;;;;;;8364561;28;20017;-41
2023/02/07 23:04:27;;;;;;;;;;;19.30;32.00;;;;;;8363190;28;19924;-41
2023/02/07 23:08:27;;;;;;;;;;;19.30;32.00;;;;;;8366313;28;20403;-40
2023/02/07 23:12:28;;;;;;;;;;;19.20;31.90;;;;;;8365745;28;20293;-41
2023/02/07 23:16:29;;;;;;;;;;;19.20;32.00;;;;;;8365887;28;19923;-40
2023/02/07 23:20:29;;;;;;;;;;;19.10;32.00;;;;;;8365580;28;19921;-41
2023/02/07 23:24:30;;;;;;;;;;;19.10;32.00;;;;;;8365665;28;20421;-41
2023/02/07 23:28:30;;;;;;;;;;;19.00;32.00;;;;;;8365313;28;19920;-40
2023/02/07 23:32:31;;;;;;;;;;;19.00;32.10;;;;;;8365462;28;20405;-40